Marfret Guyane — FNMV — position and weather

sailwx.info

Track history (hours):
 
Tides and Currents Weather Stations Pressure Air Temp Water Temp Dewpoint Dewpoint Depression Visibility Wind Speed Wind Dir Waves Ship Positions

Marfret Guyane

Last reported at 2017-Feb-20 08:21 UTC. Time now 2017-Feb-24 17:48 UTC.
Position N 34°39' W 031°09'.

Length 170 m; draft 9.5 m.

Type: Ship (hazmat cat A). MMSI: 226324000.

Date/timePositionNaut miles runAvg speedWind from/ knotsBaromVisibWave heightAir tempDewpointWater temp
2017-Feb-20 08:21N 34°39' W 031°09'1618.0
2017-Feb-20 07:27N 34°47' W 030°52'1718.1
2017-Feb-20 06:32N 34°55' W 030°34'11118.4
2017-Feb-20 00:30N 35°51' W 028°38'1718.3
2017-Feb-19 23:34N 36°00' W 028°19'1918.5
2017-Feb-19 22:33N 36°10' W 027°59'1918.5
2017-Feb-19 21:33N 36°19' W 027°39'1918.3
2017-Feb-19 20:32N 36°28' W 027°19'1818.3
2017-Feb-19 19:33N 36°37' W 027°00'1818.4
2017-Feb-19 18:33N 36°46' W 026°40'1918.6
2017-Feb-19 17:34N 36°56' W 026°20'1818.2
2017-Feb-19 16:34N 37°05' W 026°01'1818.3
2017-Feb-19 15:34N 37°15' W 025°41'1918.7
2017-Feb-19 14:34N 37°24' W 025°21'1918.9
2017-Feb-19 13:34N 37°35' W 025°01'1919.0
2017-Feb-19 12:34N 37°47' W 024°42'1918.9
2017-Feb-19 11:33N 37°58' W 024°24'1918.6
2017-Feb-19 10:34N 38°10' W 024°05'1918.5
2017-Feb-19 09:33N 38°22' W 023°47'2318.9
2017-Feb-19 08:21N 38°36' W 023°24'1519.1
2017-Feb-19 07:33N 38°46' W 023°09'1919.2
2017-Feb-19 06:33N 38°58' W 022°50'1919.2
2017-Feb-19 05:33N 39°10' W 022°31'1919.1
2017-Feb-19 04:33N 39°22' W 022°12'1919.0
2017-Feb-19 03:33N 39°34' W 021°53'1919.0
2017-Feb-19 02:33N 39°46' W 021°34'2819.0
2017-Feb-19 01:05N 40°04' W 021°05'76318.4
2017-Feb-17 07:33N 48°05' W 007°21'1717.0
2017-Feb-17 06:34N 48°17' W 007°02'3417.1
2017-Feb-17 04:33N 48°38' W 006°21'1818.0
2017-Feb-17 03:33N 48°49' W 005°60'1817.6
2017-Feb-17 02:34N 48°59' W 005°38'2713.2
2017-Feb-17 00:33N 49°12' W 005°02'3516.5
2017-Feb-16 22:27N 49°28' W 004°15'3616.2
2017-Feb-16 20:12N 49°45' W 003°25'1316.8
2017-Feb-16 19:25N 49°52' W 003°08'1517.6
2017-Feb-16 18:33N 49°59' W 002°47'2519.4
2017-Feb-16 17:17N 50°03' W 002°09'1521.5
2017-Feb-16 16:34N 50°01' W 001°45'2120.9
2017-Feb-16 15:33N 49°52' W 001°16'1918.6
2017-Feb-16 14:33N 49°44' W 000°50'1716.8
2017-Feb-16 13:34N 49°38' W 000°26'1313.0
2017-Feb-16 12:33N 49°32' W 000°08'1010.3
2017-Feb-16 11:33N 49°29' E 000°07'0 0.0
2017-Feb-16 10:33N 49°29' E 000°07'0 0.0
2017-Feb-16 09:33N 49°29' E 000°07'0 0.0
2017-Feb-16 08:33N 49°29' E 000°07'0 0.0
2017-Feb-16 07:33N 49°29' E 000°07'0 0.0
2017-Feb-16 06:33N 49°29' E 000°07'0 0.0
2017-Feb-16 05:33N 49°29' E 000°07'0 0.0
2017-Feb-16 04:33N 49°29' E 000°07'0 0.0
2017-Feb-16 03:33N 49°29' E 000°07'0 0.0
2017-Feb-16 02:33N 49°29' E 000°07'0 0.0
2017-Feb-16 01:33N 49°29' E 000°07'0 0.0
2017-Feb-16 00:33N 49°29' E 000°07'0 0.0
2017-Feb-15 23:33N 49°29' E 000°07'0 0.0
2017-Feb-15 22:33N 49°29' E 000°07'2 1.7
2017-Feb-15 21:34N 49°29' E 000°05'4 3.4
2017-Feb-15 20:32N 49°27' E 000°10'0 0.0
2017-Feb-15 19:32N 49°27' E 000°10'0 0.0
2017-Feb-15 18:29N 49°27' E 000°10'0 0.0
2017-Feb-15 17:32N 49°27' E 000°10'0 0.0
2017-Feb-15 16:29N 49°27' E 000°10'0 0.0
2017-Feb-15 15:32N 49°27' E 000°10'0 0.0
2017-Feb-15 14:32N 49°27' E 000°10'0 0.0
2017-Feb-15 13:32N 49°27' E 000°10'0 0.0
2017-Feb-15 12:32N 49°27' E 000°10'0 0.0
2017-Feb-15 11:32N 49°27' E 000°10'0 0.0
2017-Feb-15 10:32N 49°27' E 000°10'0 0.0
2017-Feb-15 09:32N 49°27' E 000°10'0 0.0
2017-Feb-15 08:32N 49°27' E 000°10'0 0.0
2017-Feb-15 07:32N 49°27' E 000°10'0 0.0
2017-Feb-15 06:32N 49°27' E 000°10'0 0.0
2017-Feb-15 05:32N 49°27' E 000°10'0 0.0
2017-Feb-15 04:32N 49°27' E 000°10'0 0.0
2017-Feb-15 03:32N 49°27' E 000°10'0 0.0
2017-Feb-15 02:32N 49°27' E 000°10'0 0.0
2017-Feb-15 01:32N 49°27' E 000°10'0 0.0
2017-Feb-15 00:32N 49°27' E 000°10'0 0.0
2017-Feb-14 23:32N 49°27' E 000°10'0 0.0
2017-Feb-14 22:32N 49°27' E 000°10'0 0.0
2017-Feb-14 21:32N 49°27' E 000°10'0 0.0
2017-Feb-14 20:32N 49°27' E 000°10'0 0.0
2017-Feb-14 19:32N 49°27' E 000°10'0 0.0
2017-Feb-14 18:32N 49°27' E 000°10'0 0.0
2017-Feb-14 17:32N 49°27' E 000°10'4 4.6
2017-Feb-14 16:34N 49°29' E 000°03'4 4.2
2017-Feb-14 15:33N 49°30' W 000°03'0 0.0
2017-Feb-14 14:33N 49°30' W 000°03'0 0.0
2017-Feb-14 13:33N 49°30' W 000°03'0 0.0
2017-Feb-14 12:33N 49°30' W 000°03'0 0.0
2017-Feb-14 11:33N 49°30' W 000°03'0 0.0
2017-Feb-14 10:33N 49°30' W 000°03'0 0.1
2017-Feb-14 09:33N 49°30' W 000°03'0 0.1
2017-Feb-14 08:33N 49°30' W 000°03'0 0.0
2017-Feb-14 07:33N 49°30' W 000°03'0 0.0
2017-Feb-14 06:33N 49°30' W 000°03'0 0.0
2017-Feb-14 05:33N 49°30' W 000°03'0 0.0
2017-Feb-14 04:33N 49°30' W 000°03'0 0.0
2017-Feb-14 03:33N 49°30' W 000°03'0 0.0
2017-Feb-14 02:33N 49°30' W 000°03'0 0.0
2017-Feb-14 01:33N 49°30' W 000°03'0 0.0
2017-Feb-14 00:33N 49°30' W 000°03'0 0.0
2017-Feb-13 23:34N 49°30' W 000°03'0 0.0
2017-Feb-13 22:34N 49°30' W 000°03'2 2.1
2017-Feb-13 21:33N 49°31' W 000°05'1010.3
2017-Feb-13 20:33N 49°41' W 000°02'1817.6
2017-Feb-13 19:34N 49°57' E 000°11'1918.4
2017-Feb-13 18:33N 50°12' E 000°28'2116.2
2017-Feb-13 17:16N 50°32' E 000°37'1216.7
2017-Feb-13 16:34N 50°42' E 000°48'1817.7
2017-Feb-13 15:33N 50°54' E 001°07'1313.3
2017-Feb-13 14:33N 51°03' E 001°23'9 9.3
2017-Feb-13 13:33N 51°08' E 001°35'1211.6
2017-Feb-13 12:33N 51°16' E 001°49'1616.2
2017-Feb-13 11:34N 51°30' E 002°03'1818.3
2017-Feb-13 10:34N 51°44' E 002°22'1918.6
2017-Feb-13 09:34N 51°58' E 002°42'1717.0
2017-Feb-13 08:33N 52°03' E 003°09'1717.4
2017-Feb-13 07:34N 52°04' E 003°37'1313.4
2017-Feb-13 06:33N 52°01' E 003°58'1312.8
2017-Feb-13 05:34N 51°54' E 004°16'6 6.3
2017-Feb-13 04:33N 51°54' E 004°26'0 0.0
2017-Feb-13 03:33N 51°54' E 004°26'0 0.0
2017-Feb-13 02:33N 51°54' E 004°26'0 0.0
2017-Feb-13 01:33N 51°54' E 004°26'0 0.0
2017-Feb-13 00:33N 51°54' E 004°26'0 0.0
2017-Feb-12 23:33N 51°54' E 004°26'0 0.0
2017-Feb-12 22:33N 51°54' E 004°26'0 0.0
2017-Feb-12 21:33N 51°54' E 004°26'0 0.0
2017-Feb-12 20:33N 51°54' E 004°26'0 0.0
2017-Feb-12 19:33N 51°54' E 004°26'0 0.0
2017-Feb-12 18:33N 51°54' E 004°26'0 0.0
2017-Feb-12 17:33N 51°54' E 004°26'0 0.0
2017-Feb-12 16:33N 51°54' E 004°26'0 0.0
2017-Feb-12 14:33N 51°54' E 004°26'0 0.0
2017-Feb-12 13:33N 51°54' E 004°26'0 0.0
2017-Feb-12 12:33N 51°54' E 004°26'0 0.0
2017-Feb-12 11:33N 51°54' E 004°26'0 0.0
2017-Feb-12 10:30N 51°54' E 004°26'0 0.0
2017-Feb-12 09:33N 51°54' E 004°26'0 0.0
2017-Feb-12 08:33N 51°54' E 004°26'0 0.0
2017-Feb-12 07:33N 51°54' E 004°26'0 0.0
2017-Feb-12 06:33N 51°54' E 004°26'0 0.0
2017-Feb-12 05:33N 51°54' E 004°26'0 0.0
2017-Feb-12 04:33N 51°54' E 004°26'3 2.7
2017-Feb-12 03:34N 51°54' E 004°22'1111.4
2017-Feb-12 02:33N 51°59' E 004°05'1212.3
2017-Feb-12 01:33N 51°60' E 003°45'1312.9
2017-Feb-12 00:33N 51°55' E 003°26'4615.2
2017-Feb-11 21:34N 51°34' E 002°20'1413.9
2017-Feb-11 20:33N 51°35' E 001°58'1514.7
2017-Feb-11 19:34N 51°29' E 001°36'6 6.0
2017-Feb-11 18:34N 51°32' E 001°27'1010.2
2017-Feb-11 17:34N 51°34' E 001°11'1616.5
2017-Feb-11 16:33N 51°29' E 000°46'1312.8
2017-Feb-11 15:33N 51°27' E 000°26'4 3.6
2017-Feb-11 14:33N 51°28' E 000°20'0 0.0
2017-Feb-11 13:33N 51°28' E 000°20'0 0.0
2017-Feb-11 12:34N 51°28' E 000°20'0 0.0
2017-Feb-11 11:33N 51°28' E 000°20'0 0.0
2017-Feb-11 10:34N 51°28' E 000°20'0 0.0
2017-Feb-11 09:33N 51°28' E 000°20'0 0.0
2017-Feb-11 08:33N 51°28' E 000°20'0 0.0
2017-Feb-11 07:33N 51°28' E 000°20'0 0.0
2017-Feb-11 06:33N 51°28' E 000°20'0 0.0
2017-Feb-11 05:33N 51°28' E 000°20'1 1.2
2017-Feb-11 04:33N 51°27' E 000°22'7 7.0
2017-Feb-11 03:33N 51°30' E 000°32'1010.1
2017-Feb-11 02:34N 51°29' E 000°48'1312.9
2017-Feb-11 01:33N 51°29' E 001°09'1313.2
2017-Feb-11 00:34N 51°26' E 001°29'6 6.3
2017-Feb-10 23:33N 51°23' E 001°38'4 4.5
2017-Feb-10 22:33N 51°20' E 001°44'8 7.7
2017-Feb-10 21:33N 51°13' E 001°39'8 8.0
2017-Feb-10 20:33N 51°05' E 001°38'8 7.8
2017-Feb-10 19:33N 50°59' E 001°30'7 6.7
2017-Feb-10 18:34N 50°54' E 001°24'8 7.6
2017-Feb-10 17:33N 50°46' E 001°21'48 7.8
2017-Feb-10 11:24N 50°21' E 000°17'1111.7
2017-Feb-10 10:29N 50°17' E 000°01'1212.9
2017-Feb-10 09:33N 50°11' W 000°15'1414.1
2017-Feb-10 08:33N 50°05' W 000°35'  
Track history (hours):
 
Tides and Currents Weather Stations Pressure Air Temp Water Temp Dewpoint Dewpoint Depression Visibility Wind Speed Wind Dir Waves Ship Positions

Marfret Guyane

Last reported at 2017-Feb-20 08:21 UTC. Time now 2017-Feb-24 17:48 UTC.
Position N 34°39' W 031°09'.

Length 170 m; draft 9.5 m.

Type: Ship (hazmat cat A). MMSI: 226324000.

Date/timePositionNaut miles runAvg speedWind from/ knotsBaromVisibWave heightAir tempDewpointWater temp
2017-Feb-20 08:21N 34°39' W 031°09'1618.0
2017-Feb-20 07:27N 34°47' W 030°52'1718.1
2017-Feb-20 06:32N 34°55' W 030°34'11118.4
2017-Feb-20 00:30N 35°51' W 028°38'1718.3
2017-Feb-19 23:34N 36°00' W 028°19'1918.5
2017-Feb-19 22:33N 36°10' W 027°59'1918.5
2017-Feb-19 21:33N 36°19' W 027°39'1918.3
2017-Feb-19 20:32N 36°28' W 027°19'1818.3
2017-Feb-19 19:33N 36°37' W 027°00'1818.4
2017-Feb-19 18:33N 36°46' W 026°40'1918.6
2017-Feb-19 17:34N 36°56' W 026°20'1818.2
2017-Feb-19 16:34N 37°05' W 026°01'1818.3
2017-Feb-19 15:34N 37°15' W 025°41'1918.7
2017-Feb-19 14:34N 37°24' W 025°21'1918.9
2017-Feb-19 13:34N 37°35' W 025°01'1919.0
2017-Feb-19 12:34N 37°47' W 024°42'1918.9
2017-Feb-19 11:33N 37°58' W 024°24'1918.6
2017-Feb-19 10:34N 38°10' W 024°05'1918.5
2017-Feb-19 09:33N 38°22' W 023°47'2318.9
2017-Feb-19 08:21N 38°36' W 023°24'1519.1
2017-Feb-19 07:33N 38°46' W 023°09'1919.2
2017-Feb-19 06:33N 38°58' W 022°50'1919.2
2017-Feb-19 05:33N 39°10' W 022°31'1919.1
2017-Feb-19 04:33N 39°22' W 022°12'1919.0
2017-Feb-19 03:33N 39°34' W 021°53'1919.0
2017-Feb-19 02:33N 39°46' W 021°34'2819.0
2017-Feb-19 01:05N 40°04' W 021°05'76318.4
2017-Feb-17 07:33N 48°05' W 007°21'1717.0
2017-Feb-17 06:34N 48°17' W 007°02'3417.1
2017-Feb-17 04:33N 48°38' W 006°21'1818.0
2017-Feb-17 03:33N 48°49' W 005°60'1817.6
2017-Feb-17 02:34N 48°59' W 005°38'2713.2
2017-Feb-17 00:33N 49°12' W 005°02'3516.5
2017-Feb-16 22:27N 49°28' W 004°15'3616.2
2017-Feb-16 20:12N 49°45' W 003°25'1316.8
2017-Feb-16 19:25N 49°52' W 003°08'1517.6
2017-Feb-16 18:33N 49°59' W 002°47'2519.4
2017-Feb-16 17:17N 50°03' W 002°09'1521.5
2017-Feb-16 16:34N 50°01' W 001°45'2120.9
2017-Feb-16 15:33N 49°52' W 001°16'1918.6
2017-Feb-16 14:33N 49°44' W 000°50'1716.8
2017-Feb-16 13:34N 49°38' W 000°26'1313.0
2017-Feb-16 12:33N 49°32' W 000°08'1010.3
2017-Feb-16 11:33N 49°29' E 000°07'0 0.0
2017-Feb-16 10:33N 49°29' E 000°07'0 0.0
2017-Feb-16 09:33N 49°29' E 000°07'0 0.0
2017-Feb-16 08:33N 49°29' E 000°07'0 0.0
2017-Feb-16 07:33N 49°29' E 000°07'0 0.0
2017-Feb-16 06:33N 49°29' E 000°07'0 0.0
2017-Feb-16 05:33N 49°29' E 000°07'0 0.0
2017-Feb-16 04:33N 49°29' E 000°07'0 0.0
2017-Feb-16 03:33N 49°29' E 000°07'0 0.0
2017-Feb-16 02:33N 49°29' E 000°07'0 0.0
2017-Feb-16 01:33N 49°29' E 000°07'0 0.0
2017-Feb-16 00:33N 49°29' E 000°07'0 0.0
2017-Feb-15 23:33N 49°29' E 000°07'0 0.0
2017-Feb-15 22:33N 49°29' E 000°07'2 1.7
2017-Feb-15 21:34N 49°29' E 000°05'4 3.4
2017-Feb-15 20:32N 49°27' E 000°10'0 0.0
2017-Feb-15 19:32N 49°27' E 000°10'0 0.0
2017-Feb-15 18:29N 49°27' E 000°10'0 0.0
2017-Feb-15 17:32N 49°27' E 000°10'0 0.0
2017-Feb-15 16:29N 49°27' E 000°10'0 0.0
2017-Feb-15 15:32N 49°27' E 000°10'0 0.0
2017-Feb-15 14:32N 49°27' E 000°10'0 0.0
2017-Feb-15 13:32N 49°27' E 000°10'0 0.0
2017-Feb-15 12:32N 49°27' E 000°10'0 0.0
2017-Feb-15 11:32N 49°27' E 000°10'0 0.0
2017-Feb-15 10:32N 49°27' E 000°10'0 0.0
2017-Feb-15 09:32N 49°27' E 000°10'0 0.0
2017-Feb-15 08:32N 49°27' E 000°10'0 0.0
2017-Feb-15 07:32N 49°27' E 000°10'0 0.0
2017-Feb-15 06:32N 49°27' E 000°10'0 0.0
2017-Feb-15 05:32N 49°27' E 000°10'0 0.0
2017-Feb-15 04:32N 49°27' E 000°10'0 0.0
2017-Feb-15 03:32N 49°27' E 000°10'0 0.0
2017-Feb-15 02:32N 49°27' E 000°10'0 0.0
2017-Feb-15 01:32N 49°27' E 000°10'0 0.0
2017-Feb-15 00:32N 49°27' E 000°10'0 0.0
2017-Feb-14 23:32N 49°27' E 000°10'0 0.0
2017-Feb-14 22:32N 49°27' E 000°10'0 0.0
2017-Feb-14 21:32N 49°27' E 000°10'0 0.0
2017-Feb-14 20:32N 49°27' E 000°10'0 0.0
2017-Feb-14 19:32N 49°27' E 000°10'0 0.0
2017-Feb-14 18:32N 49°27' E 000°10'0 0.0
2017-Feb-14 17:32N 49°27' E 000°10'4 4.6
2017-Feb-14 16:34N 49°29' E 000°03'4 4.2
2017-Feb-14 15:33N 49°30' W 000°03'0 0.0
2017-Feb-14 14:33N 49°30' W 000°03'0 0.0
2017-Feb-14 13:33N 49°30' W 000°03'0 0.0
2017-Feb-14 12:33N 49°30' W 000°03'0 0.0
2017-Feb-14 11:33N 49°30' W 000°03'0 0.0
2017-Feb-14 10:33N 49°30' W 000°03'0 0.1
2017-Feb-14 09:33N 49°30' W 000°03'0 0.1
2017-Feb-14 08:33N 49°30' W 000°03'0 0.0
2017-Feb-14 07:33N 49°30' W 000°03'0 0.0
2017-Feb-14 06:33N 49°30' W 000°03'0 0.0
2017-Feb-14 05:33N 49°30' W 000°03'0 0.0
2017-Feb-14 04:33N 49°30' W 000°03'0 0.0
2017-Feb-14 03:33N 49°30' W 000°03'0 0.0
2017-Feb-14 02:33N 49°30' W 000°03'0 0.0
2017-Feb-14 01:33N 49°30' W 000°03'0 0.0
2017-Feb-14 00:33N 49°30' W 000°03'0 0.0
2017-Feb-13 23:34N 49°30' W 000°03'0 0.0
2017-Feb-13 22:34N 49°30' W 000°03'2 2.1
2017-Feb-13 21:33N 49°31' W 000°05'1010.3
2017-Feb-13 20:33N 49°41' W 000°02'1817.6
2017-Feb-13 19:34N 49°57' E 000°11'1918.4
2017-Feb-13 18:33N 50°12' E 000°28'2116.2
2017-Feb-13 17:16N 50°32' E 000°37'1216.7
2017-Feb-13 16:34N 50°42' E 000°48'1817.7
2017-Feb-13 15:33N 50°54' E 001°07'1313.3
2017-Feb-13 14:33N 51°03' E 001°23'9 9.3
2017-Feb-13 13:33N 51°08' E 001°35'1211.6
2017-Feb-13 12:33N 51°16' E 001°49'1616.2
2017-Feb-13 11:34N 51°30' E 002°03'1818.3
2017-Feb-13 10:34N 51°44' E 002°22'1918.6
2017-Feb-13 09:34N 51°58' E 002°42'1717.0
2017-Feb-13 08:33N 52°03' E 003°09'1717.4
2017-Feb-13 07:34N 52°04' E 003°37'1313.4
2017-Feb-13 06:33N 52°01' E 003°58'1312.8
2017-Feb-13 05:34N 51°54' E 004°16'6 6.3
2017-Feb-13 04:33N 51°54' E 004°26'0 0.0
2017-Feb-13 03:33N 51°54' E 004°26'0 0.0
2017-Feb-13 02:33N 51°54' E 004°26'0 0.0
2017-Feb-13 01:33N 51°54' E 004°26'0 0.0
2017-Feb-13 00:33N 51°54' E 004°26'0 0.0
2017-Feb-12 23:33N 51°54' E 004°26'0 0.0
2017-Feb-12 22:33N 51°54' E 004°26'0 0.0
2017-Feb-12 21:33N 51°54' E 004°26'0 0.0
2017-Feb-12 20:33N 51°54' E 004°26'0 0.0
2017-Feb-12 19:33N 51°54' E 004°26'0 0.0
2017-Feb-12 18:33N 51°54' E 004°26'0 0.0
2017-Feb-12 17:33N 51°54' E 004°26'0 0.0
2017-Feb-12 16:33N 51°54' E 004°26'0 0.0
2017-Feb-12 14:33N 51°54' E 004°26'0 0.0
2017-Feb-12 13:33N 51°54' E 004°26'0 0.0
2017-Feb-12 12:33N 51°54' E 004°26'0 0.0
2017-Feb-12 11:33N 51°54' E 004°26'0 0.0
2017-Feb-12 10:30N 51°54' E 004°26'0 0.0
2017-Feb-12 09:33N 51°54' E 004°26'0 0.0
2017-Feb-12 08:33N 51°54' E 004°26'0 0.0
2017-Feb-12 07:33N 51°54' E 004°26'0 0.0
2017-Feb-12 06:33N 51°54' E 004°26'0 0.0
2017-Feb-12 05:33N 51°54' E 004°26'0 0.0
2017-Feb-12 04:33N 51°54' E 004°26'3 2.7
2017-Feb-12 03:34N 51°54' E 004°22'1111.4
2017-Feb-12 02:33N 51°59' E 004°05'1212.3
2017-Feb-12 01:33N 51°60' E 003°45'1312.9
2017-Feb-12 00:33N 51°55' E 003°26'4615.2
2017-Feb-11 21:34N 51°34' E 002°20'1413.9
2017-Feb-11 20:33N 51°35' E 001°58'1514.7
2017-Feb-11 19:34N 51°29' E 001°36'6 6.0
2017-Feb-11 18:34N 51°32' E 001°27'1010.2
2017-Feb-11 17:34N 51°34' E 001°11'1616.5
2017-Feb-11 16:33N 51°29' E 000°46'1312.8
2017-Feb-11 15:33N 51°27' E 000°26'4 3.6
2017-Feb-11 14:33N 51°28' E 000°20'0 0.0
2017-Feb-11 13:33N 51°28' E 000°20'0 0.0
2017-Feb-11 12:34N 51°28' E 000°20'0 0.0
2017-Feb-11 11:33N 51°28' E 000°20'0 0.0
2017-Feb-11 10:34N 51°28' E 000°20'0 0.0
2017-Feb-11 09:33N 51°28' E 000°20'0 0.0
2017-Feb-11 08:33N 51°28' E 000°20'0 0.0
2017-Feb-11 07:33N 51°28' E 000°20'0 0.0
2017-Feb-11 06:33N 51°28' E 000°20'0 0.0
2017-Feb-11 05:33N 51°28' E 000°20'1 1.2
2017-Feb-11 04:33N 51°27' E 000°22'7 7.0
2017-Feb-11 03:33N 51°30' E 000°32'1010.1
2017-Feb-11 02:34N 51°29' E 000°48'1312.9
2017-Feb-11 01:33N 51°29' E 001°09'1313.2
2017-Feb-11 00:34N 51°26' E 001°29'6 6.3
2017-Feb-10 23:33N 51°23' E 001°38'4 4.5
2017-Feb-10 22:33N 51°20' E 001°44'8 7.7
2017-Feb-10 21:33N 51°13' E 001°39'8 8.0
2017-Feb-10 20:33N 51°05' E 001°38'8 7.8
2017-Feb-10 19:33N 50°59' E 001°30'7 6.7
2017-Feb-10 18:34N 50°54' E 001°24'8 7.6
2017-Feb-10 17:33N 50°46' E 001°21'48 7.8
2017-Feb-10 11:24N 50°21' E 000°17'1111.7
2017-Feb-10 10:29N 50°17' E 000°01'1212.9
2017-Feb-10 09:33N 50°11' W 000°15'1414.1
2017-Feb-10 08:33N 50°05' W 000°35'  

Dump ship's entire track history